sensor_id;sensor_type;location;lat;lon;timestamp;P1;durP1;ratioP1;P2;durP2;ratioP2
29730;SDS011;16639;51.488;0.152;2023-02-08T00:01:05;56.38;;;29.02;;
29730;SDS011;16639;51.488;0.152;2023-02-08T00:03:35;64.28;;;28.55;;
29730;SDS011;16639;51.488;0.152;2023-02-08T00:06:03;56.92;;;28.85;;
29730;SDS011;16639;51.488;0.152;2023-02-08T00:08:32;55.70;;;28.48;;
29730;SDS011;16639;51.488;0.152;2023-02-08T00:11:00;56.50;;;27.83;;
29730;SDS011;16639;51.488;0.152;2023-02-08T00:13:27;69.65;;;27.02;;
29730;SDS011;16639;51.488;0.152;2023-02-08T00:15:55;56.70;;;27.98;;
29730;SDS011;16639;51.488;0.152;2023-02-08T00:18:22;55.90;;;28.05;;
29730;SDS011;16639;51.488;0.152;2023-02-08T00:20:50;55.88;;;26.67;;
29730;SDS011;16639;51.488;0.152;2023-02-08T00:23:18;58.33;;;28.50;;
29730;SDS011;16639;51.488;0.152;2023-02-08T00:25:45;66.15;;;30.05;;
29730;SDS011;16639;51.488;0.152;2023-02-08T00:28:13;58.60;;;30.70;;
29730;SDS011;16639;51.488;0.152;2023-02-08T00:30:41;65.85;;;31.20;;
29730;SDS011;16639;51.488;0.152;2023-02-08T00:33:10;66.25;;;30.60;;
29730;SDS011;16639;51.488;0.152;2023-02-08T00:35:37;56.17;;;28.95;;
29730;SDS011;16639;51.488;0.152;2023-02-08T00:38:06;67.88;;;30.70;;
29730;SDS011;16639;51.488;0.152;2023-02-08T00:40:34;77.13;;;32.38;;
29730;SDS011;16639;51.488;0.152;2023-02-08T00:43:01;64.93;;;29.85;;
29730;SDS011;16639;51.488;0.152;2023-02-08T00:45:29;71.20;;;31.67;;
29730;SDS011;16639;51.488;0.152;2023-02-08T00:47:58;64.78;;;29.50;;
29730;SDS011;16639;51.488;0.152;2023-02-08T00:50:25;64.32;;;29.77;;
29730;SDS011;16639;51.488;0.152;2023-02-08T00:52:53;63.42;;;29.45;;
29730;SDS011;16639;51.488;0.152;2023-02-08T00:55:20;68.57;;;32.22;;
29730;SDS011;16639;51.488;0.152;2023-02-08T00:57:47;56.92;;;29.20;;
29730;SDS011;16639;51.488;0.152;2023-02-08T01:00:14;68.72;;;31.17;;
29730;SDS011;16639;51.488;0.152;2023-02-08T01:02:42;54.28;;;28.65;;
29730;SDS011;16639;51.488;0.152;2023-02-08T01:05:09;58.78;;;28.42;;
29730;SDS011;16639;51.488;0.152;2023-02-08T01:07:37;52.78;;;28.15;;
29730;SDS011;16639;51.488;0.152;2023-02-08T01:10:05;55.13;;;28.70;;
29730;SDS011;16639;51.488;0.152;2023-02-08T01:12:35;56.22;;;26.88;;
29730;SDS011;16639;51.488;0.152;2023-02-08T01:15:02;48.63;;;26.80;;
29730;SDS011;16639;51.488;0.152;2023-02-08T01:17:30;47.40;;;26.92;;
29730;SDS011;16639;51.488;0.152;2023-02-08T01:19:57;48.90;;;27.88;;
29730;SDS011;16639;51.488;0.152;2023-02-08T01:22:24;50.22;;;28.13;;
29730;SDS011;16639;51.488;0.152;2023-02-08T01:24:54;52.17;;;28.70;;
29730;SDS011;16639;51.488;0.152;2023-02-08T01:27:21;58.70;;;29.20;;
29730;SDS011;16639;51.488;0.152;2023-02-08T01:29:48;70.03;;;29.20;;
29730;SDS011;16639;51.488;0.152;2023-02-08T01:32:18;121.75;;;31.40;;
29730;SDS011;16639;51.488;0.152;2023-02-08T01:34:45;145.20;;;33.92;;
29730;SDS011;16639;51.488;0.152;2023-02-08T01:37:13;107.75;;;34.28;;
29730;SDS011;16639;51.488;0.152;2023-02-08T01:39:40;141.95;;;35.58;;
29730;SDS011;16639;51.488;0.152;2023-02-08T01:42:14;69.38;;;30.42;;
29730;SDS011;16639;51.488;0.152;2023-02-08T01:47:56;55.75;;;29.42;;
29730;SDS011;16639;51.488;0.152;2023-02-08T01:50:28;163.98;;;35.67;;
29730;SDS011;16639;51.488;0.152;2023-02-08T01:52:59;116.47;;;36.47;;
29730;SDS011;16639;51.488;0.152;2023-02-08T01:55:31;87.10;;;32.90;;
29730;SDS011;16639;51.488;0.152;2023-02-08T01:58:02;83.70;;;34.15;;
29730;SDS011;16639;51.488;0.152;2023-02-08T02:00:33;65.95;;;33.67;;
29730;SDS011;16639;51.488;0.152;2023-02-08T02:03:00;76.05;;;32.97;;
29730;SDS011;16639;51.488;0.152;2023-02-08T02:05:37;61.40;;;30.60;;
29730;SDS011;16639;51.488;0.152;2023-02-08T02:08:07;84.07;;;30.70;;
29730;SDS011;16639;51.488;0.152;2023-02-08T02:10:36;56.78;;;30.35;;
29730;SDS011;16639;51.488;0.152;2023-02-08T02:13:06;53.83;;;29.45;;
29730;SDS011;16639;51.488;0.152;2023-02-08T02:15:36;51.47;;;28.70;;
29730;SDS011;16639;51.488;0.152;2023-02-08T02:18:04;51.67;;;27.98;;
29730;SDS011;16639;51.488;0.152;2023-02-08T02:20:58;84.45;;;32.65;;
29730;SDS011;16639;51.488;0.152;2023-02-08T02:32:10;52.53;;;29.13;;
29730;SDS011;16639;51.488;0.152;2023-02-08T02:34:49;54.92;;;30.95;;
29730;SDS011;16639;51.488;0.152;2023-02-08T02:43:10;108.90;;;32.25;;
29730;SDS011;16639;51.488;0.152;2023-02-08T02:51:26;82.88;;;31.65;;
29730;SDS011;16639;51.488;0.152;2023-02-08T02:53:57;81.68;;;31.50;;
29730;SDS011;16639;51.488;0.152;2023-02-08T02:56:44;51.20;;;29.92;;
29730;SDS011;16639;51.488;0.152;2023-02-08T02:59:16;49.63;;;29.48;;
29730;SDS011;16639;51.488;0.152;2023-02-08T03:01:45;139.38;;;37.60;;
29730;SDS011;16639;51.488;0.152;2023-02-08T03:04:17;176.27;;;35.92;;
29730;SDS011;16639;51.488;0.152;2023-02-08T03:14:40;77.88;;;32.72;;
29730;SDS011;16639;51.488;0.152;2023-02-08T03:17:32;74.97;;;33.15;;
29730;SDS011;16639;51.488;0.152;2023-02-08T03:20:28;73.75;;;34.45;;
29730;SDS011;16639;51.488;0.152;2023-02-08T03:28:53;83.35;;;35.17;;
29730;SDS011;16639;51.488;0.152;2023-02-08T03:31:37;78.43;;;32.13;;
29730;SDS011;16639;51.488;0.152;2023-02-08T03:34:21;69.22;;;34.75;;
29730;SDS011;16639;51.488;0.152;2023-02-08T03:36:55;102.25;;;36.80;;
29730;SDS011;16639;51.488;0.152;2023-02-08T03:39:29;89.40;;;37.28;;
29730;SDS011;16639;51.488;0.152;2023-02-08T03:41:59;75.88;;;34.75;;
29730;SDS011;16639;51.488;0.152;2023-02-08T03:44:39;78.68;;;33.33;;
29730;SDS011;16639;51.488;0.152;2023-02-08T03:47:15;72.00;;;35.58;;
29730;SDS011;16639;51.488;0.152;2023-02-08T03:49:49;65.20;;;34.88;;
29730;SDS011;16639;51.488;0.152;2023-02-08T03:52:18;61.03;;;33.20;;
29730;SDS011;16639;51.488;0.152;2023-02-08T03:54:59;63.30;;;33.05;;
29730;SDS011;16639;51.488;0.152;2023-02-08T03:57:35;61.63;;;33.58;;
29730;SDS011;16639;51.488;0.152;2023-02-08T04:00:17;66.65;;;32.75;;
29730;SDS011;16639;51.488;0.152;2023-02-08T04:02:58;73.78;;;33.47;;
29730;SDS011;16639;51.488;0.152;2023-02-08T04:05:33;65.68;;;33.03;;
29730;SDS011;16639;51.488;0.152;2023-02-08T04:08:01;68.15;;;35.83;;
29730;SDS011;16639;51.488;0.152;2023-02-08T04:10:28;63.50;;;31.80;;
29730;SDS011;16639;51.488;0.152;2023-02-08T04:12:55;62.80;;;32.45;;
29730;SDS011;16639;51.488;0.152;2023-02-08T04:15:23;64.65;;;33.50;;
29730;SDS011;16639;51.488;0.152;2023-02-08T04:17:53;60.65;;;32.75;;
29730;SDS011;16639;51.488;0.152;2023-02-08T04:20:20;75.72;;;36.13;;
29730;SDS011;16639;51.488;0.152;2023-02-08T04:22:47;66.57;;;33.15;;
29730;SDS011;16639;51.488;0.152;2023-02-08T04:25:15;69.65;;;34.60;;
29730;SDS011;16639;51.488;0.152;2023-02-08T04:27:43;116.75;;;37.60;;
29730;SDS011;16639;51.488;0.152;2023-02-08T04:30:10;74.78;;;36.10;;
29730;SDS011;16639;51.488;0.152;2023-02-08T04:32:38;85.57;;;35.17;;
29730;SDS011;16639;51.488;0.152;2023-02-08T04:35:06;59.00;;;33.08;;
29730;SDS011;16639;51.488;0.152;2023-02-08T04:37:33;74.90;;;35.78;;
29730;SDS011;16639;51.488;0.152;2023-02-08T04:40:01;75.93;;;33.25;;
29730;SDS011;16639;51.488;0.152;2023-02-08T04:42:28;78.20;;;32.80;;
29730;SDS011;16639;51.488;0.152;2023-02-08T04:44:56;66.50;;;32.97;;
29730;SDS011;16639;51.488;0.152;2023-02-08T04:47:23;65.75;;;33.72;;
29730;SDS011;16639;51.488;0.152;2023-02-08T04:49:50;66.45;;;33.20;;
29730;SDS011;16639;51.488;0.152;2023-02-08T04:52:18;63.78;;;32.83;;
29730;SDS011;16639;51.488;0.152;2023-02-08T04:54:46;70.07;;;34.55;;
29730;SDS011;16639;51.488;0.152;2023-02-08T04:57:13;115.90;;;35.13;;
29730;SDS011;16639;51.488;0.152;2023-02-08T04:59:41;90.22;;;32.35;;
29730;SDS011;16639;51.488;0.152;2023-02-08T05:02:08;174.43;;;37.67;;
29730;SDS011;16639;51.488;0.152;2023-02-08T05:04:35;121.60;;;34.25;;
29730;SDS011;16639;51.488;0.152;2023-02-08T05:07:03;202.00;;;36.80;;
29730;SDS011;16639;51.488;0.152;2023-02-08T05:09:30;109.32;;;32.58;;
29730;SDS011;16639;51.488;0.152;2023-02-08T05:11:59;106.30;;;33.63;;
29730;SDS011;16639;51.488;0.152;2023-02-08T05:14:26;83.00;;;29.48;;
29730;SDS011;16639;51.488;0.152;2023-02-08T05:16:53;76.40;;;31.00;;
29730;SDS011;16639;51.488;0.152;2023-02-08T05:19:21;171.90;;;35.88;;
29730;SDS011;16639;51.488;0.152;2023-02-08T05:21:48;68.88;;;30.92;;
29730;SDS011;16639;51.488;0.152;2023-02-08T05:24:15;74.45;;;33.42;;
29730;SDS011;16639;51.488;0.152;2023-02-08T05:26:43;169.20;;;41.47;;
29730;SDS011;16639;51.488;0.152;2023-02-08T05:29:10;96.32;;;37.88;;
29730;SDS011;16639;51.488;0.152;2023-02-08T05:31:37;89.55;;;35.17;;
29730;SDS011;16639;51.488;0.152;2023-02-08T05:34:05;129.82;;;34.95;;
29730;SDS011;16639;51.488;0.152;2023-02-08T05:36:32;110.00;;;32.65;;
29730;SDS011;16639;51.488;0.152;2023-02-08T05:39:00;67.65;;;28.95;;
29730;SDS011;16639;51.488;0.152;2023-02-08T05:41:27;123.80;;;30.52;;
29730;SDS011;16639;51.488;0.152;2023-02-08T05:43:54;139.27;;;34.03;;
29730;SDS011;16639;51.488;0.152;2023-02-08T05:46:22;74.50;;;28.52;;
29730;SDS011;16639;51.488;0.152;2023-02-08T05:48:49;83.28;;;29.35;;
29730;SDS011;16639;51.488;0.152;2023-02-08T05:51:16;108.65;;;33.08;;
29730;SDS011;16639;51.488;0.152;2023-02-08T05:53:44;101.72;;;36.72;;
29730;SDS011;16639;51.488;0.152;2023-02-08T05:56:11;220.45;;;37.88;;
29730;SDS011;16639;51.488;0.152;2023-02-08T05:58:39;113.05;;;31.40;;
29730;SDS011;16639;51.488;0.152;2023-02-08T06:01:07;252.25;;;39.50;;
29730;SDS011;16639;51.488;0.152;2023-02-08T06:03:38;270.63;;;39.38;;
29730;SDS011;16639;51.488;0.152;2023-02-08T06:06:06;55.05;;;27.77;;
29730;SDS011;16639;51.488;0.152;2023-02-08T06:08:39;168.38;;;34.22;;
29730;SDS011;16639;51.488;0.152;2023-02-08T06:11:07;140.43;;;31.40;;
29730;SDS011;16639;51.488;0.152;2023-02-08T06:13:34;106.75;;;32.88;;
29730;SDS011;16639;51.488;0.152;2023-02-08T06:16:02;169.77;;;37.55;;
29730;SDS011;16639;51.488;0.152;2023-02-08T06:18:29;102.72;;;32.22;;
29730;SDS011;16639;51.488;0.152;2023-02-08T06:20:57;103.80;;;32.47;;
29730;SDS011;16639;51.488;0.152;2023-02-08T06:23:24;96.40;;;28.67;;
29730;SDS011;16639;51.488;0.152;2023-02-08T06:25:51;83.10;;;29.58;;
29730;SDS011;16639;51.488;0.152;2023-02-08T06:28:19;74.30;;;27.73;;
29730;SDS011;16639;51.488;0.152;2023-02-08T06:30:49;57.53;;;26.95;;
29730;SDS011;16639;51.488;0.152;2023-02-08T06:33:18;49.28;;;27.38;;
29730;SDS011;16639;51.488;0.152;2023-02-08T06:35:45;54.88;;;28.55;;
29730;SDS011;16639;51.488;0.152;2023-02-08T06:38:16;47.00;;;27.27;;
29730;SDS011;16639;51.488;0.152;2023-02-08T06:40:47;58.58;;;27.05;;
29730;SDS011;16639;51.488;0.152;2023-02-08T06:43:15;49.97;;;24.98;;
29730;SDS011;16639;51.488;0.152;2023-02-08T06:45:45;47.17;;;25.50;;
29730;SDS011;16639;51.488;0.152;2023-02-08T06:48:13;44.13;;;24.08;;
29730;SDS011;16639;51.488;0.152;2023-02-08T06:50:41;49.22;;;25.27;;
29730;SDS011;16639;51.488;0.152;2023-02-08T06:53:09;56.47;;;24.25;;
29730;SDS011;16639;51.488;0.152;2023-02-08T06:55:36;47.25;;;24.42;;
29730;SDS011;16639;51.488;0.152;2023-02-08T06:58:04;46.15;;;24.98;;
29730;SDS011;16639;51.488;0.152;2023-02-08T07:00:32;46.22;;;24.77;;
29730;SDS011;16639;51.488;0.152;2023-02-08T07:03:00;50.90;;;25.98;;
29730;SDS011;16639;51.488;0.152;2023-02-08T07:05:27;52.83;;;27.52;;
29730;SDS011;16639;51.488;0.152;2023-02-08T07:07:54;56.40;;;25.52;;
29730;SDS011;16639;51.488;0.152;2023-02-08T07:10:22;52.55;;;26.95;;
29730;SDS011;16639;51.488;0.152;2023-02-08T07:12:49;49.40;;;23.55;;
29730;SDS011;16639;51.488;0.152;2023-02-08T07:15:17;56.35;;;26.67;;
29730;SDS011;16639;51.488;0.152;2023-02-08T07:17:44;53.83;;;26.63;;
29730;SDS011;16639;51.488;0.152;2023-02-08T07:20:11;50.65;;;25.60;;
29730;SDS011;16639;51.488;0.152;2023-02-08T07:22:39;51.15;;;26.02;;
29730;SDS011;16639;51.488;0.152;2023-02-08T07:25:07;59.78;;;26.63;;
29730;SDS011;16639;51.488;0.152;2023-02-08T07:27:35;49.60;;;27.00;;
29730;SDS011;16639;51.488;0.152;2023-02-08T07:30:02;44.10;;;23.20;;
29730;SDS011;16639;51.488;0.152;2023-02-08T07:32:30;42.33;;;24.63;;
29730;SDS011;16639;51.488;0.152;2023-02-08T07:35:00;53.65;;;24.65;;
29730;SDS011;16639;51.488;0.152;2023-02-08T07:37:28;47.88;;;23.95;;
29730;SDS011;16639;51.488;0.152;2023-02-08T07:39:55;53.55;;;27.25;;
29730;SDS011;16639;51.488;0.152;2023-02-08T07:42:22;50.10;;;24.55;;
29730;SDS011;16639;51.488;0.152;2023-02-08T07:44:50;49.75;;;25.98;;
29730;SDS011;16639;51.488;0.152;2023-02-08T07:47:17;51.95;;;24.60;;
29730;SDS011;16639;51.488;0.152;2023-02-08T07:49:45;48.20;;;24.05;;
29730;SDS011;16639;51.488;0.152;2023-02-08T07:52:12;47.80;;;25.65;;
29730;SDS011;16639;51.488;0.152;2023-02-08T07:54:40;48.25;;;22.92;;
29730;SDS011;16639;51.488;0.152;2023-02-08T07:57:07;44.35;;;24.33;;
29730;SDS011;16639;51.488;0.152;2023-02-08T07:59:34;42.88;;;23.55;;
29730;SDS011;16639;51.488;0.152;2023-02-08T08:02:02;40.08;;;23.55;;
29730;SDS011;16639;51.488;0.152;2023-02-08T08:04:29;47.05;;;23.38;;
29730;SDS011;16639;51.488;0.152;2023-02-08T08:06:57;54.03;;;23.98;;
29730;SDS011;16639;51.488;0.152;2023-02-08T08:09:25;48.60;;;24.33;;
29730;SDS011;16639;51.488;0.152;2023-02-08T08:11:52;46.38;;;24.60;;
29730;SDS011;16639;51.488;0.152;2023-02-08T08:14:20;51.20;;;25.05;;
29730;SDS011;16639;51.488;0.152;2023-02-08T08:16:47;50.45;;;26.15;;
29730;SDS011;16639;51.488;0.152;2023-02-08T08:19:14;49.45;;;25.88;;
29730;SDS011;16639;51.488;0.152;2023-02-08T08:21:42;49.60;;;23.13;;
29730;SDS011;16639;51.488;0.152;2023-02-08T08:24:09;63.55;;;25.05;;
29730;SDS011;16639;51.488;0.152;2023-02-08T08:26:37;54.80;;;25.00;;
29730;SDS011;16639;51.488;0.152;2023-02-08T08:29:04;53.78;;;25.83;;
29730;SDS011;16639;51.488;0.152;2023-02-08T08:31:32;42.60;;;24.02;;
29730;SDS011;16639;51.488;0.152;2023-02-08T08:34:00;41.03;;;23.40;;
29730;SDS011;16639;51.488;0.152;2023-02-08T08:36:27;53.30;;;25.02;;
29730;SDS011;16639;51.488;0.152;2023-02-08T08:38:55;50.45;;;23.50;;
29730;SDS011;16639;51.488;0.152;2023-02-08T08:41:23;51.67;;;26.98;;
29730;SDS011;16639;51.488;0.152;2023-02-08T08:43:53;49.50;;;24.73;;
29730;SDS011;16639;51.488;0.152;2023-02-08T08:46:20;48.17;;;25.52;;
29730;SDS011;16639;51.488;0.152;2023-02-08T08:48:48;54.40;;;25.52;;
29730;SDS011;16639;51.488;0.152;2023-02-08T08:51:17;42.88;;;24.98;;
29730;SDS011;16639;51.488;0.152;2023-02-08T08:53:44;44.25;;;25.08;;
29730;SDS011;16639;51.488;0.152;2023-02-08T08:56:12;44.10;;;25.65;;
29730;SDS011;16639;51.488;0.152;2023-02-08T08:58:39;52.38;;;25.75;;
29730;SDS011;16639;51.488;0.152;2023-02-08T09:01:06;48.35;;;26.10;;
29730;SDS011;16639;51.488;0.152;2023-02-08T09:03:34;47.97;;;25.88;;
29730;SDS011;16639;51.488;0.152;2023-02-08T09:06:01;54.25;;;28.65;;
29730;SDS011;16639;51.488;0.152;2023-02-08T09:08:29;77.25;;;37.05;;
29730;SDS011;16639;51.488;0.152;2023-02-08T09:11:02;90.18;;;41.03;;
29730;SDS011;16639;51.488;0.152;2023-02-08T09:13:32;84.25;;;41.70;;
29730;SDS011;16639;51.488;0.152;2023-02-08T09:16:13;95.10;;;43.50;;
29730;SDS011;16639;51.488;0.152;2023-02-08T09:18:42;76.70;;;41.42;;
29730;SDS011;16639;51.488;0.152;2023-02-08T09:21:11;84.45;;;40.53;;
29730;SDS011;16639;51.488;0.152;2023-02-08T09:23:40;86.25;;;39.97;;
29730;SDS011;16639;51.488;0.152;2023-02-08T09:26:09;76.93;;;37.30;;
29730;SDS011;16639;51.488;0.152;2023-02-08T09:28:38;95.03;;;39.28;;
29730;SDS011;16639;51.488;0.152;2023-02-08T09:33:41;90.78;;;39.90;;
29730;SDS011;16639;51.488;0.152;2023-02-08T09:36:08;90.10;;;40.85;;
29730;SDS011;16639;51.488;0.152;2023-02-08T09:38:36;81.82;;;41.13;;
29730;SDS011;16639;51.488;0.152;2023-02-08T09:46:46;70.20;;;33.75;;
29730;SDS011;16639;51.488;0.152;2023-02-08T09:49:29;66.82;;;34.22;;
29730;SDS011;16639;51.488;0.152;2023-02-08T09:52:01;70.32;;;36.95;;
29730;SDS011;16639;51.488;0.152;2023-02-08T09:54:34;79.85;;;37.78;;
29730;SDS011;16639;51.488;0.152;2023-02-08T09:57:05;92.68;;;40.97;;
29730;SDS011;16639;51.488;0.152;2023-02-08T09:59:40;89.07;;;41.15;;
29730;SDS011;16639;51.488;0.152;2023-02-08T10:02:22;80.30;;;40.88;;
29730;SDS011;16639;51.488;0.152;2023-02-08T10:07:38;83.45;;;39.35;;
29730;SDS011;16639;51.488;0.152;2023-02-08T10:10:14;71.07;;;36.90;;
29730;SDS011;16639;51.488;0.152;2023-02-08T10:13:01;67.20;;;36.28;;
29730;SDS011;16639;51.488;0.152;2023-02-08T10:15:51;67.95;;;36.25;;
29730;SDS011;16639;51.488;0.152;2023-02-08T10:18:33;68.57;;;37.42;;
29730;SDS011;16639;51.488;0.152;2023-02-08T10:21:28;73.10;;;38.50;;
29730;SDS011;16639;51.488;0.152;2023-02-08T10:24:13;69.28;;;33.20;;
29730;SDS011;16639;51.488;0.152;2023-02-08T10:26:48;68.75;;;36.88;;
29730;SDS011;16639;51.488;0.152;2023-02-08T10:35:08;87.03;;;40.63;;
29730;SDS011;16639;51.488;0.152;2023-02-08T10:37:41;84.05;;;38.72;;
29730;SDS011;16639;51.488;0.152;2023-02-08T10:40:29;89.07;;;38.03;;
29730;SDS011;16639;51.488;0.152;2023-02-08T10:43:18;98.40;;;39.22;;
29730;SDS011;16639;51.488;0.152;2023-02-08T10:49:37;101.68;;;44.50;;
29730;SDS011;16639;51.488;0.152;2023-02-08T10:52:09;98.25;;;44.88;;
29730;SDS011;16639;51.488;0.152;2023-02-08T10:54:36;99.85;;;44.20;;
29730;SDS011;16639;51.488;0.152;2023-02-08T10:57:05;108.97;;;46.10;;
29730;SDS011;16639;51.488;0.152;2023-02-08T10:59:46;119.38;;;50.47;;
29730;SDS011;16639;51.488;0.152;2023-02-08T11:02:43;119.20;;;51.08;;
29730;SDS011;16639;51.488;0.152;2023-02-08T11:05:14;114.65;;;46.53;;
29730;SDS011;16639;51.488;0.152;2023-02-08T11:07:42;102.35;;;48.10;;
29730;SDS011;16639;51.488;0.152;2023-02-08T11:12:40;96.00;;;46.50;;
29730;SDS011;16639;51.488;0.152;2023-02-08T11:15:36;128.95;;;52.63;;
29730;SDS011;16639;51.488;0.152;2023-02-08T11:18:28;127.03;;;53.92;;
29730;SDS011;16639;51.488;0.152;2023-02-08T11:21:08;123.75;;;54.13;;
29730;SDS011;16639;51.488;0.152;2023-02-08T11:23:48;136.63;;;56.10;;
29730;SDS011;16639;51.488;0.152;2023-02-08T11:31:57;147.05;;;66.03;;
29730;SDS011;16639;51.488;0.152;2023-02-08T11:37:00;148.32;;;66.50;;
29730;SDS011;16639;51.488;0.152;2023-02-08T11:39:37;163.60;;;70.45;;
29730;SDS011;16639;51.488;0.152;2023-02-08T11:42:15;139.90;;;66.82;;
29730;SDS011;16639;51.488;0.152;2023-02-08T11:44:53;165.00;;;70.63;;
29730;SDS011;16639;51.488;0.152;2023-02-08T11:47:23;151.18;;;68.53;;
29730;SDS011;16639;51.488;0.152;2023-02-08T11:49:54;136.02;;;64.88;;
29730;SDS011;16639;51.488;0.152;2023-02-08T11:52:24;139.95;;;64.65;;
29730;SDS011;16639;51.488;0.152;2023-02-08T11:57:59;143.50;;;64.70;;
29730;SDS011;16639;51.488;0.152;2023-02-08T12:03:42;110.07;;;52.97;;
29730;SDS011;16639;51.488;0.152;2023-02-08T12:06:21;110.38;;;51.55;;
29730;SDS011;16639;51.488;0.152;2023-02-08T12:08:58;99.80;;;50.47;;
29730;SDS011;16639;51.488;0.152;2023-02-08T12:11:49;100.50;;;49.63;;
29730;SDS011;16639;51.488;0.152;2023-02-08T12:14:45;89.63;;;46.90;;
29730;SDS011;16639;51.488;0.152;2023-02-08T12:20:43;103.00;;;49.70;;
29730;SDS011;16639;51.488;0.152;2023-02-08T12:23:23;93.30;;;48.70;;
29730;SDS011;16639;51.488;0.152;2023-02-08T12:26:15;97.20;;;50.78;;
29730;SDS011;16639;51.488;0.152;2023-02-08T12:40:15;87.18;;;46.33;;
29730;SDS011;16639;51.488;0.152;2023-02-08T12:54:48;78.63;;;43.22;;
29730;SDS011;16639;51.488;0.152;2023-02-08T12:57:26;84.20;;;45.72;;
29730;SDS011;16639;51.488;0.152;2023-02-08T13:02:41;81.15;;;40.70;;
29730;SDS011;16639;51.488;0.152;2023-02-08T13:07:57;90.45;;;42.95;;
29730;SDS011;16639;51.488;0.152;2023-02-08T13:10:50;81.88;;;41.58;;
29730;SDS011;16639;51.488;0.152;2023-02-08T13:13:37;79.60;;;45.95;;
29730;SDS011;16639;51.488;0.152;2023-02-08T13:16:08;78.28;;;38.42;;
29730;SDS011;16639;51.488;0.152;2023-02-08T13:18:43;88.57;;;46.53;;
29730;SDS011;16639;51.488;0.152;2023-02-08T13:21:23;68.22;;;37.10;;
29730;SDS011;16639;51.488;0.152;2023-02-08T13:23:56;57.72;;;32.58;;
29730;SDS011;16639;51.488;0.152;2023-02-08T13:26:25;57.90;;;31.90;;
29730;SDS011;16639;51.488;0.152;2023-02-08T13:28:57;52.75;;;31.05;;
29730;SDS011;16639;51.488;0.152;2023-02-08T13:31:29;57.70;;;30.58;;
29730;SDS011;16639;51.488;0.152;2023-02-08T13:34:02;96.15;;;45.55;;
29730;SDS011;16639;51.488;0.152;2023-02-08T13:36:35;59.55;;;33.85;;
29730;SDS011;16639;51.488;0.152;2023-02-08T13:39:19;51.30;;;28.80;;
29730;SDS011;16639;51.488;0.152;2023-02-08T13:42:05;46.03;;;26.45;;
29730;SDS011;16639;51.488;0.152;2023-02-08T13:44:47;50.85;;;28.42;;
29730;SDS011;16639;51.488;0.152;2023-02-08T13:47:24;51.30;;;26.92;;
29730;SDS011;16639;51.488;0.152;2023-02-08T13:53:14;42.42;;;25.77;;
29730;SDS011;16639;51.488;0.152;2023-02-08T13:55:58;55.30;;;27.52;;
29730;SDS011;16639;51.488;0.152;2023-02-08T14:01:05;44.28;;;25.92;;
29730;SDS011;16639;51.488;0.152;2023-02-08T14:06:34;41.53;;;22.95;;
29730;SDS011;16639;51.488;0.152;2023-02-08T14:09:19;42.28;;;24.10;;
29730;SDS011;16639;51.488;0.152;2023-02-08T14:12:00;40.53;;;23.50;;
29730;SDS011;16639;51.488;0.152;2023-02-08T14:14:33;39.45;;;22.33;;
29730;SDS011;16639;51.488;0.152;2023-02-08T14:19:34;35.80;;;20.95;;
29730;SDS011;16639;51.488;0.152;2023-02-08T14:24:40;34.20;;;18.65;;
29730;SDS011;16639;51.488;0.152;2023-02-08T14:30:01;40.22;;;21.08;;
29730;SDS011;16639;51.488;0.152;2023-02-08T14:32:41;34.65;;;20.58;;
29730;SDS011;16639;51.488;0.152;2023-02-08T14:35:28;40.85;;;20.98;;
29730;SDS011;16639;51.488;0.152;2023-02-08T14:40:50;42.50;;;23.95;;
29730;SDS011;16639;51.488;0.152;2023-02-08T14:43:36;48.60;;;24.55;;
29730;SDS011;16639;51.488;0.152;2023-02-08T14:49:07;42.65;;;23.25;;
29730;SDS011;16639;51.488;0.152;2023-02-08T14:51:37;46.25;;;25.48;;
29730;SDS011;16639;51.488;0.152;2023-02-08T14:54:16;43.83;;;25.08;;
29730;SDS011;16639;51.488;0.152;2023-02-08T14:57:01;43.95;;;23.63;;
29730;SDS011;16639;51.488;0.152;2023-02-08T14:59:32;48.10;;;26.35;;
29730;SDS011;16639;51.488;0.152;2023-02-08T15:02:02;46.22;;;26.30;;
29730;SDS011;16639;51.488;0.152;2023-02-08T15:04:43;49.53;;;25.55;;
29730;SDS011;16639;51.488;0.152;2023-02-08T15:10:02;50.78;;;25.58;;
29730;SDS011;16639;51.488;0.152;2023-02-08T15:12:33;45.40;;;25.15;;
29730;SDS011;16639;51.488;0.152;2023-02-08T15:15:04;51.95;;;26.52;;
29730;SDS011;16639;51.488;0.152;2023-02-08T15:17:44;53.45;;;24.88;;
29730;SDS011;16639;51.488;0.152;2023-02-08T15:20:26;47.15;;;24.15;;
29730;SDS011;16639;51.488;0.152;2023-02-08T15:23:01;50.33;;;27.30;;
29730;SDS011;16639;51.488;0.152;2023-02-08T15:25:35;50.03;;;25.65;;
29730;SDS011;16639;51.488;0.152;2023-02-08T15:30:51;46.47;;;23.73;;
29730;SDS011;16639;51.488;0.152;2023-02-08T15:33:24;52.90;;;27.60;;
29730;SDS011;16639;51.488;0.152;2023-02-08T15:38:32;46.03;;;25.85;;
29730;SDS011;16639;51.488;0.152;2023-02-08T15:41:08;47.17;;;24.27;;
29730;SDS011;16639;51.488;0.152;2023-02-08T15:43:38;40.15;;;23.23;;
29730;SDS011;16639;51.488;0.152;2023-02-08T15:49:57;42.85;;;22.55;;
29730;SDS011;16639;51.488;0.152;2023-02-08T15:52:30;35.30;;;20.35;;
29730;SDS011;16639;51.488;0.152;2023-02-08T15:55:07;36.60;;;18.15;;
29730;SDS011;16639;51.488;0.152;2023-02-08T15:58:22;32.08;;;17.77;;
29730;SDS011;16639;51.488;0.152;2023-02-08T16:00:58;37.47;;;18.13;;
29730;SDS011;16639;51.488;0.152;2023-02-08T16:03:27;30.00;;;16.33;;
29730;SDS011;16639;51.488;0.152;2023-02-08T16:05:58;25.85;;;14.45;;
29730;SDS011;16639;51.488;0.152;2023-02-08T16:08:33;27.67;;;14.52;;
29730;SDS011;16639;51.488;0.152;2023-02-08T16:13:44;30.60;;;15.63;;
29730;SDS011;16639;51.488;0.152;2023-02-08T16:23:57;24.70;;;13.85;;
29730;SDS011;16639;51.488;0.152;2023-02-08T16:27:14;30.73;;;15.68;;
29730;SDS011;16639;51.488;0.152;2023-02-08T16:29:51;24.10;;;14.38;;
29730;SDS011;16639;51.488;0.152;2023-02-08T16:35:26;34.35;;;17.23;;
29730;SDS011;16639;51.488;0.152;2023-02-08T16:37:59;31.67;;;17.25;;
29730;SDS011;16639;51.488;0.152;2023-02-08T16:49:20;41.63;;;21.38;;
29730;SDS011;16639;51.488;0.152;2023-02-08T16:56:14;33.95;;;19.33;;
29730;SDS011;16639;51.488;0.152;2023-02-08T16:58:53;36.35;;;19.67;;
29730;SDS011;16639;51.488;0.152;2023-02-08T17:05:31;37.25;;;20.30;;
29730;SDS011;16639;51.488;0.152;2023-02-08T17:08:50;38.42;;;19.83;;
29730;SDS011;16639;51.488;0.152;2023-02-08T17:16:58;38.20;;;20.40;;
29730;SDS011;16639;51.488;0.152;2023-02-08T17:20:22;38.55;;;21.05;;
29730;SDS011;16639;51.488;0.152;2023-02-08T17:23:36;38.00;;;22.30;;
29730;SDS011;16639;51.488;0.152;2023-02-08T17:27:19;37.85;;;20.42;;
29730;SDS011;16639;51.488;0.152;2023-02-08T17:30:51;45.67;;;22.00;;
29730;SDS011;16639;51.488;0.152;2023-02-08T17:33:52;51.63;;;21.95;;
29730;SDS011;16639;51.488;0.152;2023-02-08T17:36:49;42.80;;;21.23;;
29730;SDS011;16639;51.488;0.152;2023-02-08T17:39:55;47.00;;;24.00;;
29730;SDS011;16639;51.488;0.152;2023-02-08T17:42:57;38.88;;;21.75;;
29730;SDS011;16639;51.488;0.152;2023-02-08T17:46:10;41.47;;;21.17;;
29730;SDS011;16639;51.488;0.152;2023-02-08T17:49:13;48.65;;;23.75;;
29730;SDS011;16639;51.488;0.152;2023-02-08T17:51:56;42.42;;;23.83;;